createdAt,value
2023-04-11T04:23:44.293Z,63.38
2023-04-11T04:25:13.235Z,68.65
2023-04-11T04:26:30.138Z,63.15
2023-04-11T04:40:22.867Z,52.67
2023-04-11T04:46:26.689Z,56.63
2023-04-11T04:48:04.606Z,53.25
2023-04-11T04:50:19.977Z,61.58
2023-04-11T04:51:37.329Z,58.03
2023-04-11T05:06:14.378Z,62.75
2023-04-11T05:07:21.756Z,61.70
2023-04-11T05:08:34.785Z,60.42
2023-04-11T05:09:44.261Z,56.08
2023-04-11T05:10:59.753Z,56.67
2023-04-11T05:16:56.952Z,62.03
2023-04-11T05:18:07.538Z,54.28
2023-04-11T05:19:11.140Z,49.30
2023-04-11T05:20:24.594Z,59.20
2023-04-11T05:21:35.759Z,55.10
2023-04-11T05:22:52.431Z,54.35
2023-04-11T05:24:05.007Z,48.97
2023-04-11T05:25:14.960Z,53.22
2023-04-11T05:26:37.469Z,50.00
2023-04-11T05:28:17.675Z,52.05
2023-04-11T05:31:14.963Z,47.45
2023-04-11T05:33:06.958Z,48.22
2023-04-11T05:34:23.687Z,49.25
2023-04-11T05:38:34.878Z,52.70
2023-04-11T05:40:44.317Z,55.92
2023-04-11T05:54:16.719Z,47.10
2023-04-11T05:55:19.124Z,43.35
2023-04-11T05:56:21.029Z,47.55
2023-04-11T05:57:23.635Z,41.97
2023-04-11T05:58:25.808Z,48.03
2023-04-11T05:59:28.978Z,43.53
2023-04-11T06:00:38.691Z,51.03
2023-04-11T06:01:41.101Z,55.50
2023-04-11T06:06:34.710Z,49.33
2023-04-11T06:07:44.150Z,41.50
2023-04-11T06:08:51.387Z,43.28
2023-04-11T06:09:53.484Z,38.80
2023-04-11T06:11:05.043Z,36.42
2023-04-11T06:12:09.464Z,39.13
2023-04-11T06:13:11.471Z,38.42
2023-04-11T06:14:20.475Z,40.08
2023-04-11T06:16:29.676Z,41.50
2023-04-11T06:17:31.758Z,35.88
2023-04-11T06:18:33.614Z,34.30
2023-04-11T06:19:38.498Z,38.47
2023-04-11T06:20:40.600Z,34.40
2023-04-11T06:21:42.471Z,37.10
2023-04-11T06:22:50.808Z,35.75
2023-04-11T06:23:57.122Z,47.97
2023-04-11T06:24:59.212Z,51.80
2023-04-11T06:26:01.215Z,40.80
2023-04-11T06:27:03.691Z,42.65
2023-04-11T06:28:05.854Z,44.75
2023-04-11T06:29:07.768Z,38.97
2023-04-11T06:30:09.991Z,42.40
2023-04-11T06:31:12.094Z,43.92
2023-04-11T06:32:17.259Z,40.63
2023-04-11T06:33:19.264Z,41.78
2023-04-11T06:34:21.400Z,37.08
2023-04-11T06:35:25.082Z,38.78
2023-04-11T06:36:27.511Z,39.05
2023-04-11T06:37:29.521Z,38.50
2023-04-11T06:38:31.445Z,45.92
2023-04-11T06:39:34.541Z,43.85
2023-04-11T06:40:36.659Z,60.08
2023-04-11T06:41:38.453Z,51.30
2023-04-11T06:42:40.453Z,51.75
2023-04-11T06:43:42.333Z,70.68
2023-04-11T06:44:45.938Z,50.03
2023-04-11T06:45:49.685Z,53.55
2023-04-11T06:46:51.766Z,58.38
2023-04-11T06:47:57.985Z,61.33
2023-04-11T06:49:00.001Z,57.30
2023-04-11T06:50:02.061Z,52.97
2023-04-11T06:51:05.845Z,55.10
2023-04-11T06:52:07.844Z,51.55
2023-04-11T06:53:10.211Z,55.00
2023-04-11T06:54:12.012Z,56.90
2023-04-11T06:55:15.639Z,54.15
2023-04-11T06:56:17.657Z,51.15
2023-04-11T06:57:19.538Z,48.53
2023-04-11T06:58:22.577Z,55.95
2023-04-11T06:59:24.855Z,51.20
2023-04-11T07:00:27.303Z,56.55
2023-04-11T07:01:35.675Z,57.47
2023-04-11T07:02:39.369Z,53.05
2023-04-11T07:03:41.515Z,45.63
2023-04-11T07:04:43.650Z,49.20
2023-04-11T07:05:45.766Z,64.03
2023-04-11T07:06:47.966Z,58.13
2023-04-11T07:07:51.240Z,51.65
2023-04-11T07:08:53.058Z,58.25
2023-04-11T07:09:54.872Z,49.80
2023-04-11T07:10:56.997Z,56.05
2023-04-11T07:11:58.846Z,47.50
2023-04-11T07:13:00.814Z,52.45
2023-04-11T07:14:02.724Z,45.47
2023-04-11T07:15:05.413Z,39.30
2023-04-11T07:16:08.074Z,37.60
2023-04-11T07:17:10.016Z,39.20
2023-04-11T07:18:15.448Z,37.65
2023-04-11T07:19:17.520Z,38.95
2023-04-11T07:20:19.559Z,31.70
2023-04-11T07:21:22.201Z,34.33
2023-04-11T07:22:24.077Z,32.83
2023-04-11T07:23:26.508Z,32.97
2023-04-11T07:24:30.545Z,36.10
2023-04-11T07:25:33.950Z,34.33
2023-04-11T07:26:38.762Z,33.10
2023-04-11T07:27:43.867Z,30.35
2023-04-11T07:28:47.481Z,31.38
2023-04-11T07:29:49.623Z,33.83
2023-04-11T07:30:52.116Z,28.85
2023-04-11T07:31:53.987Z,29.52
2023-04-11T07:32:57.252Z,32.30
2023-04-11T07:33:59.201Z,29.45
2023-04-11T07:35:01.202Z,29.27
2023-04-11T07:36:04.133Z,31.83
2023-04-11T07:37:06.482Z,31.85
2023-04-11T07:38:09.533Z,29.33
2023-04-11T07:39:13.588Z,29.83
2023-04-11T07:40:15.657Z,31.02
2023-04-11T07:41:17.706Z,32.20
2023-04-11T07:42:19.487Z,34.80
2023-04-11T07:43:21.549Z,33.85
2023-04-11T07:44:24.002Z,33.85
2023-04-11T07:45:26.108Z,35.70
2023-04-11T07:46:27.891Z,36.50
2023-04-11T07:47:29.682Z,38.20
2023-04-11T07:48:32.284Z,34.75
2023-04-11T07:49:34.388Z,41.50
2023-04-11T07:50:36.391Z,33.80
2023-04-11T07:51:38.547Z,38.83
2023-04-11T07:52:40.516Z,41.15
2023-04-11T07:53:42.397Z,40.15
2023-04-11T07:54:44.381Z,36.40
2023-04-11T07:55:46.220Z,33.25
2023-04-11T07:56:47.980Z,36.00
2023-04-11T07:57:53.379Z,42.95
2023-04-11T07:58:55.207Z,40.83
2023-04-11T07:59:59.882Z,35.35
2023-04-11T08:01:02.726Z,33.58
2023-04-11T08:02:06.592Z,37.95
2023-04-11T08:03:11.310Z,39.83
2023-04-11T08:04:13.825Z,32.70
2023-04-11T08:05:16.138Z,36.83
2023-04-11T08:06:18.081Z,36.38
2023-04-11T08:07:19.879Z,34.75
2023-04-11T08:08:21.936Z,34.10
2023-04-11T08:09:23.780Z,38.03
2023-04-11T08:10:25.844Z,35.83
2023-04-11T08:11:27.775Z,37.85
2023-04-11T08:12:29.637Z,32.58
2023-04-11T08:13:32.137Z,35.85
2023-04-11T08:14:34.080Z,37.05
2023-04-11T08:15:37.141Z,35.75
2023-04-11T08:16:39.112Z,37.70
2023-04-11T08:17:43.819Z,45.90
2023-04-11T08:18:45.891Z,37.47
2023-04-11T08:19:47.949Z,34.90
2023-04-11T08:20:49.884Z,33.55
2023-04-11T08:21:52.767Z,32.53
2023-04-11T08:22:55.893Z,34.50
2023-04-11T08:23:57.979Z,35.72
2023-04-11T08:25:00.006Z,31.90
2023-04-11T08:26:01.782Z,38.30
2023-04-11T08:27:03.668Z,31.20
2023-04-11T08:28:06.161Z,34.40
2023-04-11T08:29:11.388Z,35.60
2023-04-11T08:30:13.966Z,32.78
2023-04-11T08:31:16.243Z,34.00
2023-04-11T08:32:18.204Z,35.88
2023-04-11T08:33:23.349Z,38.15
2023-04-11T08:34:25.495Z,31.02
2023-04-11T08:35:27.834Z,35.00
2023-04-11T08:36:30.157Z,32.95
2023-04-11T08:37:33.379Z,30.05
2023-04-11T08:38:36.584Z,33.78
2023-04-11T08:39:38.449Z,32.67
2023-04-11T08:40:40.316Z,33.15
2023-04-11T08:41:42.583Z,32.40
2023-04-11T08:42:44.899Z,32.08
2023-04-11T08:43:47.996Z,33.72
2023-04-11T08:44:58.148Z,34.05
2023-04-11T08:46:04.210Z,35.65
2023-04-11T08:47:06.695Z,27.23
2023-04-11T08:48:12.384Z,32.90
2023-04-11T08:49:14.405Z,30.52
2023-04-11T08:50:16.233Z,25.95
2023-04-11T08:51:23.132Z,25.48
2023-04-11T08:52:25.935Z,25.30
2023-04-11T08:53:30.210Z,29.08
2023-04-11T08:54:32.013Z,29.50
2023-04-11T08:55:34.367Z,28.00
2023-04-11T08:56:42.175Z,31.40
2023-04-11T08:57:44.065Z,28.17
2023-04-11T08:58:48.120Z,27.25
2023-04-11T08:59:53.399Z,29.73
2023-04-11T09:00:55.389Z,32.78
2023-04-11T09:02:09.309Z,27.30
2023-04-11T09:03:13.341Z,29.05
2023-04-11T09:04:15.377Z,27.58
2023-04-11T09:05:28.593Z,30.30
2023-04-11T09:06:31.096Z,31.30
2023-04-11T09:07:48.378Z,28.90
2023-04-11T09:08:50.954Z,31.27
2023-04-11T09:09:52.787Z,31.05
2023-04-11T09:11:01.389Z,29.33
2023-04-11T09:12:04.366Z,37.80
2023-04-11T09:13:26.564Z,32.08
2023-04-11T09:14:29.200Z,32.88
2023-04-11T09:15:31.901Z,32.65
2023-04-11T09:16:34.213Z,28.83
2023-04-11T09:17:42.513Z,29.52
2023-04-11T09:18:47.071Z,29.73
2023-04-11T09:19:49.599Z,26.83
2023-04-11T09:21:02.987Z,29.67
2023-04-11T09:22:07.748Z,31.65
2023-04-11T09:23:22.266Z,27.48
2023-04-11T09:24:25.750Z,30.27
2023-04-11T09:25:28.320Z,26.60
2023-04-11T09:26:30.882Z,29.42
2023-04-11T09:27:32.754Z,31.67
2023-04-11T09:28:54.865Z,28.25
2023-04-11T09:29:56.998Z,26.75
2023-04-11T09:30:58.811Z,30.85
2023-04-11T09:32:00.768Z,28.98
2023-04-11T09:33:22.779Z,34.50
2023-04-11T09:34:27.552Z,29.67
2023-04-11T09:35:29.736Z,27.75
2023-04-11T09:36:31.601Z,25.70
2023-04-11T09:37:57.963Z,25.48
2023-04-11T09:39:00.246Z,24.13
2023-04-11T09:40:03.463Z,28.75
2023-04-11T09:41:06.140Z,30.92
2023-04-11T09:42:28.361Z,25.92
2023-04-11T09:43:50.518Z,28.98
2023-04-11T09:44:53.248Z,25.23
2023-04-11T09:46:11.783Z,24.42
2023-04-11T09:47:13.785Z,27.67
2023-04-11T09:48:16.501Z,27.83
2023-04-11T09:49:18.478Z,24.83
2023-04-11T09:50:20.962Z,26.27
2023-04-11T09:52:30.824Z,25.17
2023-04-11T09:53:35.275Z,29.08
2023-04-11T09:54:37.875Z,25.95
2023-04-11T09:55:40.093Z,26.25
2023-04-11T09:56:42.935Z,22.95
2023-04-11T09:57:46.988Z,23.92
2023-04-11T09:58:50.016Z,22.60
2023-04-11T09:59:53.564Z,25.60
2023-04-11T10:00:56.692Z,25.80
2023-04-11T10:01:58.992Z,26.95
2023-04-11T10:03:01.359Z,26.05
2023-04-11T10:04:04.637Z,29.48
2023-04-11T10:05:08.438Z,26.63
2023-04-11T10:06:16.565Z,26.27
2023-04-11T10:07:19.697Z,27.77
2023-04-11T10:08:32.738Z,24.83
2023-04-11T10:09:39.685Z,28.13
2023-04-11T10:10:44.174Z,32.30
2023-04-11T10:11:49.243Z,22.25
2023-04-11T10:12:51.753Z,24.92
2023-04-11T10:13:58.111Z,26.35
2023-04-11T10:15:08.407Z,22.08
2023-04-11T10:16:15.993Z,26.65
2023-04-11T10:17:22.776Z,24.33
2023-04-11T10:18:27.423Z,26.23
2023-04-11T10:19:29.314Z,23.52
2023-04-11T10:20:50.984Z,26.52
2023-04-11T10:21:53.112Z,28.50
2023-04-11T10:22:59.313Z,26.58
2023-04-11T10:24:09.947Z,28.48
2023-04-11T10:25:15.512Z,26.30
2023-04-11T10:27:07.716Z,25.65
2023-04-11T10:28:30.939Z,25.80
2023-04-11T10:29:34.889Z,27.05
2023-04-11T10:30:46.245Z,29.58
2023-04-11T10:32:20.789Z,24.42
2023-04-11T10:33:26.109Z,25.02
2023-04-11T10:34:27.883Z,25.30
2023-04-11T10:35:30.965Z,26.63
2023-04-11T10:37:06.305Z,23.85
2023-04-11T10:38:47.993Z,25.90
2023-04-11T10:40:00.726Z,29.73
2023-04-11T10:41:25.038Z,26.73
2023-04-11T10:42:55.252Z,23.33
2023-04-11T10:44:23.551Z,26.80
2023-04-11T10:49:05.116Z,26.13
2023-04-11T10:50:28.897Z,25.25
2023-04-11T10:51:34.767Z,26.75
2023-04-11T10:52:38.431Z,25.40
2023-04-11T10:53:40.984Z,24.60
2023-04-11T10:54:44.630Z,36.38
2023-04-11T10:55:48.693Z,29.70
2023-04-11T10:56:55.158Z,28.02
2023-04-11T10:58:11.468Z,24.85
2023-04-11T10:59:32.083Z,24.67
2023-04-11T11:00:52.475Z,27.42
2023-04-11T11:01:55.954Z,27.17
2023-04-11T11:02:58.392Z,27.52
2023-04-11T11:04:00.995Z,27.20
2023-04-11T11:05:15.070Z,27.02
2023-04-11T11:06:17.215Z,24.98
2023-04-11T11:07:19.050Z,30.48
2023-04-11T11:08:30.545Z,26.98
2023-04-11T11:09:33.451Z,32.13
2023-04-11T11:10:36.941Z,25.33
2023-04-11T11:11:38.712Z,23.23
2023-04-11T11:12:56.141Z,24.73
2023-04-11T11:14:01.709Z,26.00
2023-04-11T11:15:13.477Z,26.60
2023-04-11T11:16:17.792Z,29.70
2023-04-11T11:17:19.746Z,24.17
2023-04-11T11:18:22.826Z,26.77
2023-04-11T11:19:24.679Z,26.92
2023-04-11T11:20:26.473Z,28.30
2023-04-11T11:21:30.121Z,27.88
2023-04-11T11:22:31.915Z,24.55
2023-04-11T11:23:36.085Z,22.25
2023-04-11T11:24:38.457Z,23.40
2023-04-11T11:25:40.386Z,27.40
2023-04-11T11:26:44.010Z,26.13
2023-04-11T11:27:46.140Z,24.60
2023-04-11T11:28:48.966Z,23.42
2023-04-11T11:29:51.563Z,26.95
2023-04-11T11:30:57.638Z,27.10
2023-04-11T11:32:00.449Z,25.50
2023-04-11T11:33:22.407Z,22.52
2023-04-11T11:34:31.516Z,27.15
2023-04-11T11:36:39.074Z,24.33
2023-04-11T11:37:41.944Z,24.55
2023-04-11T11:38:47.158Z,25.17
2023-04-11T11:39:49.929Z,20.77
2023-04-11T11:40:52.307Z,21.58
2023-04-11T11:41:54.534Z,21.60
2023-04-11T11:42:56.345Z,20.63
2023-04-11T11:43:59.363Z,23.42
2023-04-11T11:45:20.554Z,25.42
2023-04-11T11:46:22.445Z,24.75
2023-04-11T11:47:25.835Z,21.30
2023-04-11T11:48:30.509Z,23.67
2023-04-11T11:49:52.646Z,20.88
2023-04-11T11:50:56.595Z,24.63
2023-04-11T11:51:58.582Z,25.13
2023-04-11T11:53:19.677Z,25.50
2023-04-11T11:54:22.959Z,23.45
2023-04-11T11:55:24.903Z,23.00
2023-04-11T11:56:26.786Z,23.20
2023-04-11T11:57:30.880Z,21.10
2023-04-11T11:58:43.540Z,25.45
2023-04-11T11:59:45.732Z,25.02
2023-04-11T12:00:50.375Z,25.75
2023-04-11T12:01:52.512Z,27.25
2023-04-11T12:06:45.990Z,22.10
2023-04-11T12:07:54.890Z,24.08
2023-04-11T12:10:11.988Z,22.92
2023-04-11T12:11:16.870Z,20.17
2023-04-11T12:12:25.458Z,26.48
2023-04-11T12:13:37.559Z,29.13
2023-04-11T12:14:40.202Z,23.92
2023-04-11T12:15:46.832Z,22.40
2023-04-11T12:16:50.370Z,19.00
2023-04-11T12:17:54.174Z,21.98
2023-04-11T12:19:01.142Z,22.13
2023-04-11T12:20:18.758Z,21.08
2023-04-11T12:21:21.066Z,19.00
2023-04-11T12:22:22.968Z,18.95
2023-04-11T12:23:24.746Z,20.98
2023-04-11T12:24:26.755Z,21.38
2023-04-11T12:25:28.796Z,19.65
2023-04-11T12:26:30.683Z,24.52
2023-04-11T12:27:36.697Z,21.15
2023-04-11T12:28:43.545Z,24.08
2023-04-11T12:29:46.767Z,21.33
2023-04-11T12:30:48.661Z,20.45
2023-04-11T12:31:50.811Z,21.25
2023-04-11T12:32:52.980Z,23.50
2023-04-11T12:33:55.300Z,22.10
2023-04-11T12:34:57.458Z,21.15
2023-04-11T12:35:59.287Z,22.05
2023-04-11T12:37:01.163Z,20.13
2023-04-11T12:38:04.258Z,22.00
2023-04-11T12:39:07.331Z,17.85
2023-04-11T12:40:12.176Z,20.63
2023-04-11T12:41:31.735Z,21.42
2023-04-11T12:42:39.049Z,19.60
2023-04-11T12:43:47.486Z,25.35
2023-04-11T12:44:50.928Z,19.70
2023-04-11T12:45:53.321Z,21.90
2023-04-11T12:46:55.190Z,21.85
2023-04-11T12:47:57.102Z,27.52
2023-04-11T12:49:00.852Z,25.98
2023-04-11T12:50:03.689Z,22.38
2023-04-11T12:51:05.890Z,20.25
2023-04-11T12:52:11.143Z,19.73
2023-04-11T12:53:12.930Z,23.35
2023-04-11T12:54:18.708Z,23.00
2023-04-11T12:55:21.764Z,27.15
2023-04-11T12:56:23.776Z,35.38
2023-04-11T12:57:25.967Z,26.23
2023-04-11T12:58:28.736Z,23.23
2023-04-11T12:59:32.333Z,22.73
2023-04-11T13:00:34.515Z,22.90
2023-04-11T13:01:37.046Z,20.38
2023-04-11T13:02:43.799Z,21.40
2023-04-11T13:03:46.936Z,21.27
2023-04-11T13:04:55.006Z,17.98
2023-04-11T13:05:57.013Z,19.90
2023-04-11T13:07:02.618Z,19.52
2023-04-11T13:08:04.754Z,18.90
2023-04-11T13:09:07.806Z,19.98
2023-04-11T13:10:10.440Z,18.05
2023-04-11T13:11:12.258Z,17.58
2023-04-11T13:12:14.414Z,18.92
2023-04-11T13:13:18.428Z,22.65
2023-04-11T13:14:21.060Z,16.60
2023-04-11T13:15:25.553Z,18.45
2023-04-11T13:16:27.415Z,23.70
2023-04-11T13:17:29.231Z,20.73
2023-04-11T13:18:31.131Z,17.80
2023-04-11T13:19:33.190Z,19.92
2023-04-11T13:20:35.118Z,17.52
2023-04-11T13:21:37.432Z,21.00
2023-04-11T13:22:43.507Z,18.80
2023-04-11T13:23:45.932Z,17.77
2023-04-11T13:24:47.726Z,22.35
2023-04-11T13:25:49.681Z,16.67
2023-04-11T13:26:51.569Z,19.67
2023-04-11T13:27:53.473Z,22.42
2023-04-11T13:28:56.071Z,23.20
2023-04-11T13:29:58.182Z,20.92
2023-04-11T13:31:00.125Z,21.23
2023-04-11T13:32:01.999Z,23.02
2023-04-11T13:33:05.516Z,19.52
2023-04-11T13:34:07.509Z,19.35
2023-04-11T13:35:09.582Z,18.50
2023-04-11T13:36:11.589Z,18.38
2023-04-11T13:37:13.453Z,22.67
2023-04-11T13:38:15.399Z,20.35
2023-04-11T13:39:19.466Z,26.85
2023-04-11T13:40:21.302Z,19.95
2023-04-11T13:41:24.182Z,21.33
2023-04-11T13:42:26.124Z,25.50
2023-04-11T13:43:28.449Z,18.80
2023-04-11T13:44:30.533Z,17.60
2023-04-11T13:45:32.496Z,18.17
2023-04-11T13:46:34.602Z,21.05
2023-04-11T13:47:38.762Z,20.42
2023-04-11T13:48:41.095Z,18.55
2023-04-11T13:49:43.236Z,16.95
2023-04-11T13:50:45.124Z,17.40
2023-04-11T13:51:46.956Z,19.65
2023-04-11T13:52:48.778Z,18.83
2023-04-11T13:53:50.815Z,24.20
2023-04-11T13:54:52.662Z,18.98
2023-04-11T13:55:55.038Z,27.92
2023-04-11T13:56:56.957Z,22.75
2023-04-11T13:57:58.795Z,53.70
2023-04-11T13:59:00.698Z,26.25
2023-04-11T14:00:06.821Z,20.40
2023-04-11T14:01:08.779Z,23.40
2023-04-11T14:02:11.107Z,25.15
2023-04-11T14:03:13.207Z,17.55
2023-04-11T14:04:15.706Z,17.48
2023-04-11T14:05:17.920Z,18.05
2023-04-11T14:06:19.842Z,14.68
2023-04-11T14:07:21.812Z,15.95
2023-04-11T14:08:23.655Z,21.33
2023-04-11T14:09:26.180Z,15.80
2023-04-11T14:10:28.245Z,19.08
2023-04-11T14:11:29.976Z,19.95
2023-04-11T14:12:31.831Z,23.00
2023-04-11T14:13:33.762Z,21.42
2023-04-11T14:14:37.196Z,16.42
2023-04-11T14:15:39.127Z,21.92
2023-04-11T14:16:41.183Z,17.25
2023-04-11T14:17:44.067Z,17.85
2023-04-11T14:18:46.009Z,25.23
2023-04-11T14:19:47.963Z,24.63
2023-04-11T14:20:49.950Z,15.82
2023-04-11T14:21:52.067Z,15.77
2023-04-11T14:22:56.360Z,23.90
2023-04-11T14:24:02.291Z,17.00
2023-04-11T14:25:05.657Z,16.42
2023-04-11T14:26:07.558Z,18.60
2023-04-11T14:27:09.734Z,19.50
2023-04-11T14:28:12.055Z,18.67
2023-04-11T14:29:14.263Z,19.85
2023-04-11T14:30:16.974Z,24.92
2023-04-11T14:31:25.004Z,16.15
2023-04-11T14:32:27.989Z,18.67
2023-04-11T14:33:31.940Z,19.35
2023-04-11T14:35:02.555Z,20.75
2023-04-11T14:36:07.417Z,19.85
2023-04-11T14:37:09.670Z,21.55
2023-04-11T14:38:11.644Z,19.58
2023-04-11T14:39:14.094Z,16.67
2023-04-11T14:40:17.726Z,20.23
2023-04-11T14:41:19.723Z,19.67
2023-04-11T14:42:21.831Z,26.50
2023-04-11T14:43:27.422Z,16.83
2023-04-11T14:44:29.868Z,22.33
2023-04-11T14:45:32.180Z,21.73
2023-04-11T14:46:35.668Z,22.20
2023-04-11T14:47:40.035Z,21.50
2023-04-11T14:48:41.868Z,21.17
2023-04-11T14:49:44.116Z,24.85
2023-04-11T14:50:48.633Z,21.83
2023-04-11T14:52:07.034Z,19.27
2023-04-11T14:53:09.357Z,17.85
2023-04-11T14:54:11.570Z,21.88
2023-04-11T14:55:13.496Z,17.52
2023-04-11T14:56:15.658Z,19.17
2023-04-11T14:57:52.363Z,28.73
2023-04-11T14:58:54.859Z,21.88
2023-04-11T14:59:59.556Z,23.00
2023-04-11T15:01:01.471Z,19.30
2023-04-11T15:02:05.366Z,23.88
2023-04-11T15:03:10.793Z,20.58
2023-04-11T15:04:13.329Z,27.58
2023-04-11T15:05:18.102Z,23.98
2023-04-11T15:06:21.583Z,30.33
2023-04-11T15:07:23.502Z,22.27
2023-04-11T15:08:25.600Z,27.23
2023-04-11T15:09:28.185Z,23.45
2023-04-11T15:10:30.753Z,26.95
2023-04-11T15:11:33.592Z,22.20
2023-04-11T15:12:36.455Z,20.58
2023-04-11T15:13:41.274Z,18.38
2023-04-11T15:15:25.378Z,20.70
2023-04-11T15:16:27.767Z,20.42
2023-04-11T15:17:42.668Z,18.77
2023-04-11T15:18:46.121Z,21.60
2023-04-11T15:19:48.264Z,27.50
2023-04-11T15:20:51.080Z,17.60
2023-04-11T15:21:52.882Z,24.38
2023-04-11T15:23:17.602Z,18.52
2023-04-11T15:24:24.759Z,21.67
2023-04-11T15:25:27.444Z,19.98
2023-04-11T15:26:30.150Z,20.50
2023-04-11T15:27:32.515Z,19.02
2023-04-11T15:28:38.639Z,20.38
2023-04-11T15:30:35.049Z,29.90
2023-04-11T15:32:55.059Z,21.55
2023-04-11T15:34:05.266Z,82.10
2023-04-11T15:37:37.568Z,164.13
2023-04-11T15:38:40.057Z,133.35
2023-04-11T15:39:42.370Z,70.72
2023-04-11T15:40:57.124Z,120.65
2023-04-11T15:42:32.571Z,83.00
2023-04-11T15:45:52.424Z,41.35
2023-04-11T15:46:56.162Z,22.60
2023-04-11T15:48:25.499Z,23.52
2023-04-11T15:51:28.559Z,51.13
2023-04-11T15:52:33.881Z,36.28
2023-04-11T15:53:36.909Z,50.45
2023-04-11T15:54:41.003Z,47.30
2023-04-11T15:55:46.191Z,23.48
2023-04-11T15:56:51.552Z,24.90
2023-04-11T15:57:55.209Z,26.40
2023-04-11T15:58:57.536Z,26.98
2023-04-11T16:00:01.299Z,25.98
2023-04-11T16:01:38.190Z,24.08
2023-04-11T16:02:45.894Z,31.02
2023-04-11T16:03:50.365Z,29.33
2023-04-11T16:04:54.622Z,42.58
2023-04-11T16:05:59.961Z,28.88
2023-04-11T16:07:02.791Z,36.88
2023-04-11T16:08:14.260Z,28.15
2023-04-11T16:09:21.629Z,38.25
2023-04-11T16:10:25.695Z,40.33
2023-04-11T16:11:32.079Z,27.65
2023-04-11T16:12:38.467Z,34.05
2023-04-11T16:13:44.135Z,22.77
2023-04-11T16:14:46.451Z,24.08
2023-04-11T16:15:52.142Z,22.33
2023-04-11T16:16:54.384Z,25.63
2023-04-11T16:17:56.329Z,25.00
2023-04-11T16:18:58.174Z,29.30
2023-04-11T16:20:02.487Z,25.17
2023-04-11T16:21:12.565Z,29.02
2023-04-11T16:23:18.810Z,22.83
2023-04-11T16:24:21.366Z,24.80
2023-04-11T16:25:23.146Z,30.25
2023-04-11T16:26:27.020Z,26.05
2023-04-11T16:27:29.263Z,28.13
2023-04-11T16:28:31.067Z,30.08
2023-04-11T16:29:35.276Z,37.70
2023-04-11T16:30:37.390Z,95.38
2023-04-11T16:31:39.386Z,77.13
2023-04-11T16:32:43.064Z,48.42
2023-04-11T16:33:47.906Z,37.80
2023-04-11T16:34:52.053Z,28.95
2023-04-11T16:35:53.820Z,32.05
2023-04-11T16:36:58.589Z,28.05
2023-04-11T16:38:00.713Z,25.98
2023-04-11T16:39:04.261Z,31.75
2023-04-11T16:40:11.495Z,29.17
2023-04-11T16:41:16.385Z,26.88
2023-04-11T16:42:18.923Z,26.92
2023-04-11T16:43:20.853Z,27.98
2023-04-11T16:44:38.755Z,30.23
2023-04-11T16:45:50.751Z,28.52
2023-04-11T16:46:58.125Z,43.10
2023-04-11T16:48:00.509Z,37.55
2023-04-11T16:49:02.402Z,36.63
2023-04-11T16:50:35.308Z,30.00
2023-04-11T16:53:14.308Z,99.10
2023-04-11T16:54:27.065Z,198.77
2023-04-11T16:55:28.957Z,54.55
2023-04-11T16:56:35.630Z,28.73
2023-04-11T16:58:13.896Z,32.55
2023-04-11T17:05:10.901Z,30.45
2023-04-11T17:08:03.520Z,27.85
2023-04-11T17:09:20.223Z,30.55
2023-04-11T17:33:28.643Z,55.75
2023-04-11T17:34:57.989Z,45.22
2023-04-11T17:36:06.213Z,48.80
2023-04-11T17:37:10.364Z,44.90
2023-04-11T17:40:44.630Z,41.58
2023-04-11T17:43:03.360Z,54.92
2023-04-11T17:44:31.019Z,42.05
2023-04-11T17:46:09.105Z,38.15
2023-04-11T17:47:19.962Z,42.55
2023-04-11T17:48:30.054Z,38.35
2023-04-11T17:50:08.051Z,41.58
2023-04-11T17:51:21.252Z,41.05
2023-04-11T17:52:41.782Z,42.90
2023-04-11T17:56:29.299Z,52.03
2023-04-11T17:58:14.136Z,36.67
2023-04-11T18:13:53.824Z,33.83
2023-04-11T18:15:07.166Z,34.90
2023-04-11T18:18:49.914Z,34.38
2023-04-11T18:28:45.953Z,32.90
2023-04-11T18:31:15.715Z,39.50
2023-04-11T18:34:38.544Z,34.03
2023-04-11T18:41:02.204Z,34.03
2023-04-11T18:45:25.985Z,31.58
2023-04-11T18:46:38.294Z,33.00
2023-04-11T18:48:23.309Z,34.90
2023-04-11T18:54:24.755Z,35.78
2023-04-11T19:04:05.968Z,37.90
2023-04-11T19:08:35.162Z,35.25
2023-04-11T19:09:39.322Z,39.40
2023-04-11T19:10:47.397Z,40.03
2023-04-11T19:11:52.638Z,43.38
2023-04-11T19:16:02.575Z,33.15
2023-04-11T19:17:06.403Z,36.75
2023-04-11T19:18:10.698Z,37.58
2023-04-11T19:19:13.886Z,39.03
2023-04-11T19:20:26.683Z,45.13
2023-04-11T19:21:29.695Z,44.38
2023-04-11T19:22:32.992Z,41.78
2023-04-11T19:23:40.092Z,43.85
2023-04-11T19:24:50.977Z,40.80
2023-04-11T19:26:06.286Z,39.33
2023-04-11T19:27:24.679Z,36.45
2023-04-11T19:28:29.519Z,38.38
2023-04-11T19:29:35.764Z,40.70
2023-04-11T19:31:55.603Z,46.35
2023-04-11T19:32:59.039Z,42.67
2023-04-11T19:34:06.470Z,41.88
2023-04-11T19:36:03.634Z,46.70
2023-04-11T19:37:06.937Z,50.70
2023-04-11T19:39:53.585Z,46.53
2023-04-11T19:41:10.947Z,45.45
2023-04-11T19:42:16.877Z,41.95
2023-04-11T19:43:22.453Z,43.53
2023-04-11T19:44:55.406Z,48.45
2023-04-11T19:46:24.829Z,44.35
2023-04-11T19:47:28.611Z,44.47
2023-04-11T19:48:37.923Z,40.75
2023-04-11T19:49:44.057Z,40.42
2023-04-11T19:51:14.382Z,39.90
2023-04-11T19:52:25.152Z,49.75
2023-04-11T19:53:30.879Z,46.05
2023-04-11T19:54:43.012Z,42.67
2023-04-11T19:55:54.941Z,42.45
2023-04-11T19:56:59.260Z,47.85
2023-04-11T19:58:05.349Z,43.65
2023-04-11T19:59:13.091Z,46.53
2023-04-11T20:00:26.561Z,39.72
2023-04-11T20:01:32.900Z,39.60
2023-04-11T20:02:48.810Z,42.28
2023-04-11T20:04:04.662Z,41.08
2023-04-11T20:11:53.514Z,45.42
2023-04-11T20:13:00.951Z,47.60
2023-04-11T20:14:06.303Z,47.53
2023-04-11T20:15:15.456Z,46.40
2023-04-11T20:16:24.187Z,42.03
2023-04-11T20:17:29.810Z,45.88
2023-04-11T20:18:36.677Z,45.03
2023-04-11T20:19:47.278Z,43.85
2023-04-11T20:21:19.550Z,56.50
2023-04-11T20:22:23.725Z,55.97
2023-04-11T20:23:34.954Z,47.88
2023-04-11T20:24:42.540Z,46.78
2023-04-11T20:26:43.234Z,52.08
2023-04-11T20:30:29.873Z,49.90
2023-04-11T20:33:10.174Z,48.97
2023-04-11T20:34:13.718Z,48.58
2023-04-11T20:35:49.655Z,47.22
2023-04-11T20:37:01.189Z,49.65
2023-04-11T20:38:04.348Z,50.45
2023-04-11T20:39:08.075Z,56.45
2023-04-11T20:40:41.561Z,46.50
2023-04-11T20:41:51.159Z,44.25
2023-04-11T20:48:02.603Z,56.45
2023-04-11T20:49:05.639Z,52.30
2023-04-11T20:50:16.319Z,53.00
2023-04-11T20:51:24.674Z,54.42
2023-04-11T20:52:33.197Z,55.42
2023-04-11T20:53:40.428Z,54.58
2023-04-11T20:54:46.891Z,48.13
2023-04-11T20:57:15.068Z,53.50
2023-04-11T20:58:21.522Z,52.55
2023-04-11T20:59:24.443Z,54.67
2023-04-11T21:00:53.411Z,70.97
2023-04-11T21:01:59.440Z,59.70
2023-04-11T21:03:06.110Z,57.95
2023-04-11T21:04:17.725Z,54.97
2023-04-11T21:15:02.098Z,68.05
2023-04-11T21:19:56.752Z,55.03
2023-04-11T21:21:28.677Z,71.30
2023-04-11T21:22:33.831Z,64.25
2023-04-11T21:23:49.890Z,71.47
2023-04-11T21:24:56.738Z,75.65
2023-04-11T21:26:06.502Z,75.85
2023-04-11T21:27:11.210Z,78.82
2023-04-11T21:29:32.567Z,66.70
2023-04-11T21:31:36.652Z,72.95
2023-04-11T21:32:44.140Z,77.45
2023-04-11T21:33:47.099Z,77.15
2023-04-11T21:34:51.861Z,75.93
2023-04-11T21:36:02.426Z,72.05
2023-04-11T21:37:08.502Z,68.45
2023-04-11T21:38:23.638Z,67.50
2023-04-11T21:39:28.860Z,84.10
2023-04-11T21:41:24.302Z,80.55
2023-04-11T21:42:32.091Z,75.40
2023-04-11T21:43:37.202Z,83.57
2023-04-11T21:44:43.257Z,74.05
2023-04-11T21:57:43.622Z,82.07
2023-04-11T21:58:46.973Z,82.25
2023-04-11T21:59:54.480Z,86.20
2023-04-11T22:01:49.593Z,79.05
2023-04-11T22:03:28.269Z,78.25
2023-04-11T22:04:51.346Z,77.93
2023-04-11T22:10:09.951Z,77.97
2023-04-11T22:14:49.813Z,72.43
2023-04-11T22:21:25.465Z,71.82
2023-04-11T22:22:57.855Z,87.37
2023-04-11T22:24:02.584Z,76.85
2023-04-11T22:25:09.104Z,85.15
2023-04-11T22:29:53.688Z,73.00
2023-04-11T22:38:35.811Z,93.88
2023-04-11T22:40:06.493Z,82.85
2023-04-11T22:44:39.907Z,75.63
2023-04-11T22:47:15.895Z,78.68
2023-04-11T22:49:27.749Z,74.30
2023-04-11T22:57:49.364Z,76.80
2023-04-11T22:59:16.019Z,82.22
2023-04-11T23:06:08.036Z,74.80
2023-04-11T23:09:43.557Z,64.93
2023-04-11T23:11:22.196Z,67.22
2023-04-11T23:16:36.634Z,65.47
2023-04-11T23:19:31.056Z,76.82
2023-04-11T23:22:51.812Z,74.72
2023-04-11T23:24:22.985Z,66.95